sensor_id;sensor_type;location;lat;lon;timestamp;pressure;altitude;pressure_sealevel;temperature;humidity
54918;BME280;40818;50.562;7.454;2024-02-15T00:05:57;97996.81;;;9.09;100.00
54918;BME280;40818;50.562;7.454;2024-02-15T00:16:03;97992.66;;;9.06;100.00
54918;BME280;40818;50.562;7.454;2024-02-15T00:26:06;97988.81;;;9.13;100.00
54918;BME280;40818;50.562;7.454;2024-02-15T00:36:15;97996.81;;;9.09;100.00
54918;BME280;40818;50.562;7.454;2024-02-15T00:46:18;97995.00;;;9.11;100.00
54918;BME280;40818;50.562;7.454;2024-02-15T00:56:24;97999.50;;;9.07;100.00
54918;BME280;40818;50.562;7.454;2024-02-15T01:06:28;97993.50;;;9.07;100.00
54918;BME280;40818;50.562;7.454;2024-02-15T01:16:34;97989.91;;;9.09;100.00
54918;BME280;40818;50.562;7.454;2024-02-15T01:26:37;98006.34;;;9.08;100.00
54918;BME280;40818;50.562;7.454;2024-02-15T01:36:47;98009.69;;;9.10;100.00
54918;BME280;40818;50.562;7.454;2024-02-15T01:46:51;98004.34;;;9.13;100.00
54918;BME280;40818;50.562;7.454;2024-02-15T01:56:58;98002.50;;;9.15;100.00
54918;BME280;40818;50.562;7.454;2024-02-15T02:07:02;97993.03;;;9.14;100.00
54918;BME280;40818;50.562;7.454;2024-02-15T02:17:14;97983.13;;;9.07;100.00
54918;BME280;40818;50.562;7.454;2024-02-15T02:27:23;97965.25;;;9.02;100.00
54918;BME280;40818;50.562;7.454;2024-02-15T02:37:27;97968.59;;;9.04;100.00
54918;BME280;40818;50.562;7.454;2024-02-15T02:47:32;97959.38;;;9.14;100.00
54918;BME280;40818;50.562;7.454;2024-02-15T02:57:37;97954.47;;;9.10;100.00
54918;BME280;40818;50.562;7.454;2024-02-15T03:07:44;97943.38;;;9.08;100.00
54918;BME280;40818;50.562;7.454;2024-02-15T03:17:48;97944.94;;;9.10;100.00
54918;BME280;40818;50.562;7.454;2024-02-15T03:27:55;97936.00;;;9.00;100.00
54918;BME280;40818;50.562;7.454;2024-02-15T03:37:59;97931.44;;;9.05;100.00
54918;BME280;40818;50.562;7.454;2024-02-15T03:48:06;97927.84;;;8.92;100.00
54918;BME280;40818;50.562;7.454;2024-02-15T03:58:09;97933.69;;;8.79;100.00
54918;BME280;40818;50.562;7.454;2024-02-15T04:08:17;97934.97;;;8.88;100.00
54918;BME280;40818;50.562;7.454;2024-02-15T04:18:21;97936.00;;;9.00;100.00
54918;BME280;40818;50.562;7.454;2024-02-15T04:28:27;97926.34;;;9.03;100.00
54918;BME280;40818;50.562;7.454;2024-02-15T04:38:31;97931.66;;;9.00;100.00
54918;BME280;40818;50.562;7.454;2024-02-15T04:48:37;97929.16;;;8.99;100.00
54918;BME280;40818;50.562;7.454;2024-02-15T04:58:44;97928.00;;;8.88;100.00
54918;BME280;40818;50.562;7.454;2024-02-15T05:08:51;97923.94;;;8.84;100.00
54918;BME280;40818;50.562;7.454;2024-02-15T05:18:56;97926.34;;;8.87;100.00
54918;BME280;40818;50.562;7.454;2024-02-15T05:29:02;97926.00;;;8.94;100.00
54918;BME280;40818;50.562;7.454;2024-02-15T05:39:05;97918.06;;;8.97;100.00
54918;BME280;40818;50.562;7.454;2024-02-15T05:49:14;97911.63;;;9.04;100.00
54918;BME280;40818;50.562;7.454;2024-02-15T05:59:18;97908.44;;;8.99;100.00
54918;BME280;40818;50.562;7.454;2024-02-15T06:09:24;97901.78;;;8.95;100.00
54918;BME280;40818;50.562;7.454;2024-02-15T06:19:28;97907.13;;;8.92;100.00
54918;BME280;40818;50.562;7.454;2024-02-15T06:29:35;97906.72;;;8.83;100.00
54918;BME280;40818;50.562;7.454;2024-02-15T06:39:51;97901.72;;;8.80;100.00
54918;BME280;40818;50.562;7.454;2024-02-15T06:49:57;97900.81;;;8.81;100.00
54918;BME280;40818;50.562;7.454;2024-02-15T07:00:01;97893.78;;;8.83;100.00
54918;BME280;40818;50.562;7.454;2024-02-15T07:10:08;97899.34;;;8.92;100.00
54918;BME280;40818;50.562;7.454;2024-02-15T07:20:13;97894.50;;;9.01;100.00
54918;BME280;40818;50.562;7.454;2024-02-15T07:30:20;97909.78;;;9.06;100.00
54918;BME280;40818;50.562;7.454;2024-02-15T07:40:24;97909.16;;;9.17;100.00
54918;BME280;40818;50.562;7.454;2024-02-15T07:50:31;97918.97;;;9.12;100.00
54918;BME280;40818;50.562;7.454;2024-02-15T08:00:37;97917.13;;;9.14;100.00
54918;BME280;40818;50.562;7.454;2024-02-15T08:10:43;97916.50;;;9.25;100.00
54918;BME280;40818;50.562;7.454;2024-02-15T08:20:49;97918.41;;;9.37;100.00
54918;BME280;40818;50.562;7.454;2024-02-15T08:30:56;97924.72;;;9.47;100.00
54918;BME280;40818;50.562;7.454;2024-02-15T08:41:00;97919.91;;;9.55;100.00
54918;BME280;40818;50.562;7.454;2024-02-15T08:51:07;97910.66;;;9.66;100.00
54918;BME280;40818;50.562;7.454;2024-02-15T09:01:11;97913.22;;;9.82;100.00
54918;BME280;40818;50.562;7.454;2024-02-15T09:11:17;97909.59;;;9.84;100.00
54918;BME280;40818;50.562;7.454;2024-02-15T09:21:20;97903.41;;;10.01;100.00
54918;BME280;40818;50.562;7.454;2024-02-15T09:31:28;97902.38;;;10.04;100.00
54918;BME280;40818;50.562;7.454;2024-02-15T09:41:31;97892.75;;;9.91;100.00
54918;BME280;40818;50.562;7.454;2024-02-15T09:51:39;97886.91;;;9.88;100.00
54918;BME280;40818;50.562;7.454;2024-02-15T10:01:45;97867.53;;;9.94;100.00
54918;BME280;40818;50.562;7.454;2024-02-15T10:11:56;97880.31;;;10.25;100.00
54918;BME280;40818;50.562;7.454;2024-02-15T10:22:05;97881.00;;;10.71;100.00
54918;BME280;40818;50.562;7.454;2024-02-15T10:32:12;97880.44;;;11.20;100.00
54918;BME280;40818;50.562;7.454;2024-02-15T10:42:16;97882.84;;;11.62;100.00
54918;BME280;40818;50.562;7.454;2024-02-15T10:52:24;97875.28;;;11.98;100.00
54918;BME280;40818;50.562;7.454;2024-02-15T11:02:34;97858.91;;;12.58;100.00
54918;BME280;40818;50.562;7.454;2024-02-15T11:12:45;97851.13;;;12.94;100.00
54918;BME280;40818;50.562;7.454;2024-02-15T11:22:56;97841.41;;;12.85;100.00
54918;BME280;40818;50.562;7.454;2024-02-15T11:33:25;97833.69;;;12.83;100.00
54918;BME280;40818;50.562;7.454;2024-02-15T11:43:45;97811.66;;;13.11;100.00
54918;BME280;40818;50.562;7.454;2024-02-15T11:54:01;97806.84;;;13.29;100.00
54918;BME280;40818;50.562;7.454;2024-02-15T12:04:06;97797.53;;;13.03;100.00
54918;BME280;40818;50.562;7.454;2024-02-15T12:14:25;97796.16;;;13.21;100.00
54918;BME280;40818;50.562;7.454;2024-02-15T12:24:41;97778.19;;;13.52;100.00
54918;BME280;40818;50.562;7.454;2024-02-15T12:34:47;97765.66;;;13.57;100.00
54918;BME280;40818;50.562;7.454;2024-02-15T12:44:51;97759.81;;;13.99;100.00
54918;BME280;40818;50.562;7.454;2024-02-15T12:55:10;97733.59;;;13.89;100.00
54918;BME280;40818;50.562;7.454;2024-02-15T13:05:13;97727.22;;;13.82;100.00
54918;BME280;40818;50.562;7.454;2024-02-15T13:15:22;97718.78;;;13.90;100.00
54918;BME280;40818;50.562;7.454;2024-02-15T13:25:27;97704.69;;;13.70;100.00
54918;BME280;40818;50.562;7.454;2024-02-15T13:35:34;97692.25;;;13.17;100.00
54918;BME280;40818;50.562;7.454;2024-02-15T13:45:39;97682.63;;;13.06;100.00
54918;BME280;40818;50.562;7.454;2024-02-15T13:55:47;97675.47;;;12.62;100.00
54918;BME280;40818;50.562;7.454;2024-02-15T14:05:52;97649.34;;;12.40;100.00
54918;BME280;40818;50.562;7.454;2024-02-15T14:15:58;97642.88;;;12.10;100.00
54918;BME280;40818;50.562;7.454;2024-02-15T14:26:04;97612.97;;;11.91;100.00
54918;BME280;40818;50.562;7.454;2024-02-15T14:36:10;97596.03;;;11.86;100.00
54918;BME280;40818;50.562;7.454;2024-02-15T14:46:14;97603.72;;;11.87;100.00
54918;BME280;40818;50.562;7.454;2024-02-15T14:56:20;97589.72;;;11.77;100.00
54918;BME280;40818;50.562;7.454;2024-02-15T15:06:24;97579.59;;;11.61;100.00
54918;BME280;40818;50.562;7.454;2024-02-15T15:16:43;97595.31;;;11.59;100.00
54918;BME280;40818;50.562;7.454;2024-02-15T15:26:46;97586.84;;;11.69;100.00
54918;BME280;40818;50.562;7.454;2024-02-15T15:36:52;97585.06;;;11.45;100.00
54918;BME280;40818;50.562;7.454;2024-02-15T15:46:57;97575.22;;;11.37;100.00
54918;BME280;40818;50.562;7.454;2024-02-15T15:57:04;97583.31;;;11.33;100.00
54918;BME280;40818;50.562;7.454;2024-02-15T16:07:07;97578.34;;;11.30;100.00
54918;BME280;40818;50.562;7.454;2024-02-15T16:17:13;97570.72;;;11.15;100.00
54918;BME280;40818;50.562;7.454;2024-02-15T16:27:17;97550.28;;;10.98;100.00
54918;BME280;40818;50.562;7.454;2024-02-15T16:37:23;97549.66;;;10.81;100.00
54918;BME280;40818;50.562;7.454;2024-02-15T16:47:27;97523.97;;;10.52;100.00
54918;BME280;40818;50.562;7.454;2024-02-15T16:57:33;97507.56;;;10.26;100.00
54918;BME280;40818;50.562;7.454;2024-02-15T17:07:36;97508.16;;;10.17;100.00
54918;BME280;40818;50.562;7.454;2024-02-15T17:17:43;97506.19;;;10.20;100.00
54918;BME280;40818;50.562;7.454;2024-02-15T17:27:48;97515.53;;;10.10;100.00
54918;BME280;40818;50.562;7.454;2024-02-15T17:37:55;97525.88;;;10.10;100.00
54918;BME280;40818;50.562;7.454;2024-02-15T17:47:58;97513.94;;;10.07;100.00
54918;BME280;40818;50.562;7.454;2024-02-15T17:58:04;97510.22;;;10.12;100.00
54918;BME280;40818;50.562;7.454;2024-02-15T18:08:08;97502.75;;;10.07;100.00
54918;BME280;40818;50.562;7.454;2024-02-15T18:18:15;97501.91;;;9.94;100.00
54918;BME280;40818;50.562;7.454;2024-02-15T18:28:19;97499.19;;;9.82;100.00
54918;BME280;40818;50.562;7.454;2024-02-15T18:38:27;97485.72;;;9.77;100.00
54918;BME280;40818;50.562;7.454;2024-02-15T18:48:30;97467.28;;;9.82;100.00
54918;BME280;40818;50.562;7.454;2024-02-15T18:58:36;97466.34;;;9.96;100.00
54918;BME280;40818;50.562;7.454;2024-02-15T19:08:40;97451.19;;;9.89;100.00
54918;BME280;40818;50.562;7.454;2024-02-15T19:18:46;97428.91;;;9.87;100.00
54918;BME280;40818;50.562;7.454;2024-02-15T19:28:49;97441.97;;;9.85;100.00
54918;BME280;40818;50.562;7.454;2024-02-15T19:38:55;97432.44;;;9.86;100.00
54918;BME280;40818;50.562;7.454;2024-02-15T19:48:59;97433.88;;;9.90;100.00
54918;BME280;40818;50.562;7.454;2024-02-15T19:59:06;97443.41;;;9.89;100.00
54918;BME280;40818;50.562;7.454;2024-02-15T20:09:10;97439.19;;;9.88;100.00
54918;BME280;40818;50.562;7.454;2024-02-15T20:19:17;97424.66;;;9.73;100.00
54918;BME280;40818;50.562;7.454;2024-02-15T20:29:21;97406.47;;;9.60;100.00
54918;BME280;40818;50.562;7.454;2024-02-15T20:39:27;97410.19;;;9.56;100.00
54918;BME280;40818;50.562;7.454;2024-02-15T20:49:31;97405.13;;;9.54;100.00
54918;BME280;40818;50.562;7.454;2024-02-15T20:59:37;97392.69;;;9.60;100.00
54918;BME280;40818;50.562;7.454;2024-02-15T21:09:41;97393.22;;;9.65;100.00
54918;BME280;40818;50.562;7.454;2024-02-15T21:19:47;97387.63;;;9.71;100.00
54918;BME280;40818;50.562;7.454;2024-02-15T21:29:50;97369.78;;;9.79;100.00
54918;BME280;40818;50.562;7.454;2024-02-15T21:39:56;97373.72;;;9.98;100.00
54918;BME280;40818;50.562;7.454;2024-02-15T21:50:00;97399.84;;;10.07;100.00
54918;BME280;40818;50.562;7.454;2024-02-15T22:00:07;97394.88;;;10.04;100.00
54918;BME280;40818;50.562;7.454;2024-02-15T22:10:12;97393.22;;;10.16;100.00
54918;BME280;40818;50.562;7.454;2024-02-15T22:20:18;97377.66;;;10.16;100.00
54918;BME280;40818;50.562;7.454;2024-02-15T22:30:22;97382.63;;;10.19;100.00
54918;BME280;40818;50.562;7.454;2024-02-15T22:40:28;97389.88;;;10.27;100.00
54918;BME280;40818;50.562;7.454;2024-02-15T22:50:32;97386.31;;;10.28;100.00
54918;BME280;40818;50.562;7.454;2024-02-15T23:00:38;97377.84;;;10.26;100.00
54918;BME280;40818;50.562;7.454;2024-02-15T23:10:41;97376.16;;;10.25;100.00
54918;BME280;40818;50.562;7.454;2024-02-15T23:20:47;97382.41;;;10.22;100.00
54918;BME280;40818;50.562;7.454;2024-02-15T23:30:50;97377.22;;;10.22;100.00
54918;BME280;40818;50.562;7.454;2024-02-15T23:40:56;97381.25;;;10.27;100.00
54918;BME280;40818;50.562;7.454;2024-02-15T23:51:00;97378.88;;;10.36;100.00
